Flight Track Log - Related Links

Times and Time Zones

All times are in EDT time to prevent confusion due to time zone crossing. See the AAY817 flight status page for this flight to view local times or setup timezone preferences in your user account.

Time Position Orientation Groundspeed Altitude Reporting Facility
EDT Latitude Longitude Course Direction KTS MPH feet Rate Location/Type
Mon 03:51:10 PM 38.3306 -82.5081 143° Southeast 175 201 3,100  Level Indianapolis Center
Mon 03:52:12 PM 38.2825 -82.4628 144° Southeast 225 259 4,600 2,032 Climbing Indianapolis Center
Mon 03:53:14 PM 38.2203 -82.4006 142° Southeast 273 314 7,300 2,806 Climbing Indianapolis Center
Mon 03:54:16 PM 38.1261 -82.3572 160° South 300 345 10,400 2,352 Climbing Indianapolis Center
Mon 03:55:19 PM 38.0378 -82.3606 182° South 329 379 12,200 2,064 Climbing Indianapolis Center
Mon 03:56:00 PM 37.8124 -82.0175 143° Southeast  Level FlightAware Approximate
Mon 03:56:21 PM 37.9358 -82.3636 181° South 353 406 14,700  Level Indianapolis Center
Mon 03:57:23 PM 37.8106 -82.3672 181° South 378 435 17,100 2,129 Climbing Indianapolis Center
Mon 03:58:25 PM 37.6944 -82.3700 181° South 405 466 19,100 2,129 Climbing Indianapolis Center
Mon 03:59:27 PM 37.5764 -82.3722 181° South 418 481 21,500 1,984 Climbing Indianapolis Center
Mon 04:00:29 PM 37.4572 -82.3761 181° South 420 483 23,200 1,694 Climbing Indianapolis Center
Mon 04:01:31 PM 37.3350 -82.3786 181° South 431 496 25,000 1,548 Climbing Indianapolis Center
Mon 04:02:33 PM 37.2097 -82.3828 182° South 441 507 26,400 1,403 Climbing Indianapolis Center
Mon 04:03:35 PM 37.0583 -82.3867 181° South 456 525 27,900 774 Climbing Indianapolis Center
Mon 04:04:37 PM 36.9267 -82.3894 181° South 463 533 28,000 435 Climbing Indianapolis Center
Mon 04:05:39 PM 36.7950 -82.3931 181° South 464 534 28,800 912 Climbing Indianapolis Center
Mon 04:06:42 PM 36.6603 -82.3969 181° South 471 542 29,900 1,152 Climbing Indianapolis Center
Mon 04:07:44 PM 36.5233 -82.4011 181° South 481 554 31,200 1,403 Climbing Indianapolis Center
Mon 04:08:46 PM 36.3883 -82.4053 181° South 482 555 32,800 1,500 Climbing Indianapolis Center
Mon 04:09:48 PM 36.2336 -82.4092 181° South 478 550 34,300 1,161 Climbing Indianapolis Center
Mon 04:10:50 PM 36.1011 -82.4117 181° South 475 547 35,200 667 Climbing Indianapolis Center
Mon 04:15:21 PM 35.2936 -82.4339 181° South 481 554 38,000 494 Climbing FlightAware ADS-B (KDZJ)
Mon 04:16:30 PM 35.1389 -82.4380 181° South 481 554 38,000  Level FlightAware ADS-B (KDZJ)
Mon 04:17:41 PM 34.9825 -82.4421 181° South 470 541 38,000  Level FlightAware ADS-B (KDZJ)
Mon 04:18:28 PM 34.8790 -82.4447 181° South 469 540 38,000  Level FlightAware ADS-B (KDZJ)
Mon 04:19:12 PM 34.7816 -82.4472 181° South 479 551 38,000  Level FlightAware ADS-B (KDZJ)
Mon 04:19:51 PM 34.6953 -82.4495 181° South 480 552 38,000  Level FlightAware ADS-B (KDZJ)
Mon 04:20:45 PM 34.5733 -82.4527 181° South 480 552 38,000  Level FlightAware ADS-B (KDZJ)
Mon 04:21:29 PM 34.4758 -82.4553 181° South 484 557 38,000  Level FlightAware ADS-B (KDZJ)
Mon 04:22:52 PM 34.5061 -82.4558 181° South 476 548 38,000  Level Atlanta Center
Mon 04:23:52 PM 34.3747 -82.4608 182° South 476 548 38,000  Level Atlanta Center
Mon 04:24:52 PM 34.2369 -82.4633 181° South 476 548 38,000  Level Atlanta Center
Mon 04:25:52 PM 34.0994 -82.4658 181° South 481 554 38,000  Level Atlanta Center
Mon 04:26:52 PM 33.9678 -82.4683 181° South 482 555 38,000  Level Atlanta Center
Mon 04:27:52 PM 33.8364 -82.4733 182° South 477 549 38,000  Level Atlanta Center
Mon 04:28:52 PM 33.6925 -82.4758 181° South 471 542 38,000  Level Atlanta Center
Mon 04:29:52 PM 33.5631 -82.4808 182° South 471 542 38,000  Level Atlanta Center
Mon 04:30:52 PM 33.4275 -82.4831 181° South 476 548 38,000  Level Atlanta Center
Mon 04:31:52 PM 33.3128 -82.4853 181° South 471 542 38,000  Level Atlanta Center
Mon 04:32:52 PM 33.1811 -82.4900 182° South 471 542 38,000  Level Atlanta Center
Mon 04:33:52 PM 33.0497 -82.4925 181° South 477 549 38,000  Level Atlanta Center
Mon 04:37:42 PM 32.5458 -82.4983 181° South 457 526 38,000  Level Jacksonville Center
Mon 04:38:42 PM 32.4019 -82.5086 183° South 463 533 38,000  Level Jacksonville Center
Mon 04:39:42 PM 32.2703 -82.5069 179° South 469 540 38,000  Level Jacksonville Center
Mon 04:40:42 PM 32.1408 -82.5122 182° South 474 545 38,000  Level Jacksonville Center
Mon 04:41:42 PM 32.0114 -82.5153 181° South 474 545 38,000  Level Jacksonville Center
Mon 04:42:42 PM 31.8778 -82.5208 182° South 479 551 38,000  Level Jacksonville Center
Mon 04:43:42 PM 31.7483 -82.5236 181° South 479 551 38,000  Level Jacksonville Center
Mon 04:44:42 PM 31.6189 -82.5242 180° South 474 545 38,000  Level Jacksonville Center
Mon 04:45:42 PM 31.4894 -82.5272 181° South 474 545 38,000  Level Jacksonville Center
Mon 04:46:42 PM 31.3581 -82.5300 181° South 474 545 38,000  Level Jacksonville Center
Mon 04:47:42 PM 31.2389 -82.5403 184° South 474 545 38,000  Level Jacksonville Center
Mon 04:52:58 PM 30.5561 -82.5514 181° South 449 517 38,000  Level FlightAware ADS-B
Mon 04:53:43 PM 30.4653 -82.5445 170° South 456 525 38,000  Level FlightAware ADS-B
Mon 04:55:09 PM 30.2887 -82.5066 170° South 459 528 38,000 -465 Level FlightAware ADS-B
Mon 04:55:52 PM 30.1985 -82.4875 170° South 457 526 37,000 -1,807 Descending FlightAware ADS-B
Mon 04:56:32 PM 30.1081 -82.4683 170° South 466 536 35,500 -2,372 Descending FlightAware ADS-B
Mon 04:57:18 PM 30.0121 -82.4478 170° South 471 542 33,600 -2,455 Descending FlightAware ADS-B
Mon 04:58:00 PM 29.9248 -82.4294 170° South 462 532 31,900 -1,976 Descending FlightAware ADS-B
Mon 04:58:40 PM 29.8384 -82.4112 170° South 460 529 30,900 -1,588 Descending FlightAware ADS-B
Mon 04:59:42 PM 29.7079 -82.3837 170° South 448 516 29,200 -1,819 Descending FlightAware ADS-B
Mon 05:01:15 PM 29.5300 -82.3514 174° South 426 490 26,200 -1,805 Descending FlightAware ADS-B
Mon 05:01:55 PM 29.4524 -82.3421 174° South 419 482 25,200 -1,600 Descending FlightAware ADS-B
Mon 05:02:30 PM 29.3884 -82.3343 174° South 417 480 24,200 -2,414 Descending FlightAware ADS-B
Mon 05:03:22 PM 29.2805 -82.3214 174° South 419 482 21,700 -2,436 Descending FlightAware ADS-B
Mon 05:04:11 PM 29.1830 -82.3098 174° South 400 460 20,100 -1,864 Descending FlightAware ADS-B
Mon 05:05:05 PM 29.0852 -82.2982 174° South 385 443 18,500 -1,794 Descending FlightAware ADS-B
Mon 05:05:48 PM 29.0101 -82.2894 174° South 371 427 17,200 -1,618 Descending FlightAware ADS-B
Mon 05:06:34 PM 28.9406 -82.2811 174° South 363 418 16,100 -1,590 Descending FlightAware ADS-B
Mon 05:07:11 PM 28.8715 -82.2728 174° South 357 411 15,000 -1,667 Descending FlightAware ADS-B
Mon 05:07:46 PM 28.8135 -82.2660 174° South 351 404 14,100 -1,135 Descending FlightAware ADS-B
Mon 05:09:02 PM 28.6935 -82.2568 180° South 337 388 12,900 -1,170 Descending FlightAware ADS-B
Mon 05:10:25 PM 28.5721 -82.2710 220° Southwest 314 361 11,000 -1,677 Descending FlightAware ADS-B
Mon 05:10:35 PM 28.5623 -82.2839 250° West 322 371 10,300 -1,119 Descending FlightAware ADS-B
Mon 05:11:24 PM 28.5424 -82.3598 257° West 324 373 9,900 -353 Descending FlightAware ADS-B
Mon 05:11:43 PM 28.5351 -82.3935 256° West 326 375 9,900  Level FlightAware ADS-B
Mon 05:13:33 PM 28.4945 -82.5758 256° West 326 375 9,900 -164 Level FlightAware ADS-B
Mon 05:14:46 PM 28.4500 -82.6667 256° West 298 343 9,400 -632 Descending Tampa TRACON
Mon 05:15:46 PM 28.3667 -82.6667 180° South 285 328 8,500 -850 Descending Tampa TRACON
Mon 05:16:46 PM 28.2833 -82.6833 190° South 281 323 7,700 -762 Descending Tampa TRACON
Mon 05:17:52 PM 28.2167 -82.7333 213° Southwest 284 327 6,900 -850 Descending Tampa TRACON
Mon 05:18:46 PM 28.1833 -82.8000 240° Southwest 276 318 6,000 -895 Descending Tampa TRACON
Mon 05:19:46 PM 28.1167 -82.8500 213° Southwest 273 314 5,200 -650 Descending Tampa TRACON
Mon 05:20:46 PM 28.0500 -82.8333 168° South 265 305 4,700 -550 Descending Tampa TRACON
Mon 05:21:46 PM 27.9667 -82.8167 170° South 268 308 4,100 -600 Descending Tampa TRACON
Mon 05:22:46 PM 27.9000 -82.8000 168° South 240 276 3,500 -600 Descending Tampa TRACON
Mon 05:23:46 PM 27.8500 -82.7667 149° Southeast 200 230 2,900 -600 Descending Tampa TRACON
Mon 05:24:46 PM 27.8167 -82.7167 127° Southeast 177 204 2,300 -850 Descending Tampa TRACON
Mon 05:25:46 PM 27.8500 -82.6833 41° Northeast 161 185 1,200 -950 Descending Tampa TRACON
Mon 05:26:46 PM 27.8833 -82.6833 360° North 126 145 400 -800 Descending Tampa TRACON
Mon 05:28:00 PM 27.9000 -82.6833 310° West  Level FlightAware Approximate
Mon 05:35:00 PM 27.9100 -82.6875 310° West  Level Estimated
Mon 05:36:00 PM 27.9100 -82.6875 310° West  Level Estimated
Mon 05:37:00 PM 27.9100 -82.6875 310° West  Level Estimated

Login

Don't have an account? Register now (free) for customized features, flight alerts, and more!